sensor_id;sensor_type;location;lat;lon;timestamp;P1;durP1;ratioP1;P2;durP2;ratioP2
57327;SDS011;43162;51.040;18.244;2023-04-01T00:01:26;12.40;;;6.60;;
57327;SDS011;43162;51.040;18.244;2023-04-01T00:03:52;7.10;;;4.90;;
57327;SDS011;43162;51.040;18.244;2023-04-01T00:06:19;9.90;;;6.20;;
57327;SDS011;43162;51.040;18.244;2023-04-01T00:08:45;8.90;;;5.70;;
57327;SDS011;43162;51.040;18.244;2023-04-01T00:11:11;9.80;;;7.20;;
57327;SDS011;43162;51.040;18.244;2023-04-01T00:13:37;15.70;;;9.10;;
57327;SDS011;43162;51.040;18.244;2023-04-01T00:16:02;18.90;;;10.30;;
57327;SDS011;43162;51.040;18.244;2023-04-01T00:18:29;21.80;;;10.80;;
57327;SDS011;43162;51.040;18.244;2023-04-01T00:20:55;13.90;;;7.90;;
57327;SDS011;43162;51.040;18.244;2023-04-01T00:23:21;11.60;;;7.50;;
57327;SDS011;43162;51.040;18.244;2023-04-01T00:25:47;11.80;;;7.10;;
57327;SDS011;43162;51.040;18.244;2023-04-01T00:28:16;14.50;;;7.80;;
57327;SDS011;43162;51.040;18.244;2023-04-01T00:30:43;14.50;;;7.10;;
57327;SDS011;43162;51.040;18.244;2023-04-01T00:33:08;12.50;;;6.30;;
57327;SDS011;43162;51.040;18.244;2023-04-01T00:35:34;13.50;;;6.30;;
57327;SDS011;43162;51.040;18.244;2023-04-01T00:38:00;9.80;;;6.10;;
57327;SDS011;43162;51.040;18.244;2023-04-01T00:40:31;7.90;;;5.70;;
57327;SDS011;43162;51.040;18.244;2023-04-01T00:43:01;8.20;;;5.70;;
57327;SDS011;43162;51.040;18.244;2023-04-01T00:47:57;9.30;;;6.30;;
57327;SDS011;43162;51.040;18.244;2023-04-01T00:50:25;11.40;;;6.40;;
57327;SDS011;43162;51.040;18.244;2023-04-01T00:52:52;9.30;;;6.30;;
57327;SDS011;43162;51.040;18.244;2023-04-01T00:55:18;9.60;;;6.00;;
57327;SDS011;43162;51.040;18.244;2023-04-01T00:57:45;10.70;;;6.10;;
57327;SDS011;43162;51.040;18.244;2023-04-01T01:00:12;13.00;;;7.00;;
57327;SDS011;43162;51.040;18.244;2023-04-01T01:02:41;9.20;;;6.30;;
57327;SDS011;43162;51.040;18.244;2023-04-01T01:05:07;11.80;;;6.70;;
57327;SDS011;43162;51.040;18.244;2023-04-01T01:07:47;10.20;;;6.90;;
57327;SDS011;43162;51.040;18.244;2023-04-01T01:10:48;10.50;;;6.00;;
57327;SDS011;43162;51.040;18.244;2023-04-01T01:13:22;11.60;;;6.60;;
57327;SDS011;43162;51.040;18.244;2023-04-01T01:16:00;8.70;;;7.00;;
57327;SDS011;43162;51.040;18.244;2023-04-01T01:18:35;12.60;;;6.70;;
57327;SDS011;43162;51.040;18.244;2023-04-01T01:32:30;9.70;;;6.50;;
57327;SDS011;43162;51.040;18.244;2023-04-01T01:38:03;12.60;;;7.90;;
57327;SDS011;43162;51.040;18.244;2023-04-01T01:40:31;11.70;;;7.60;;
57327;SDS011;43162;51.040;18.244;2023-04-01T01:42:59;10.10;;;7.00;;
57327;SDS011;43162;51.040;18.244;2023-04-01T01:45:29;13.40;;;7.80;;
57327;SDS011;43162;51.040;18.244;2023-04-01T01:47:56;12.60;;;8.70;;
57327;SDS011;43162;51.040;18.244;2023-04-01T01:50:23;11.00;;;8.30;;
57327;SDS011;43162;51.040;18.244;2023-04-01T01:52:49;14.20;;;8.50;;
57327;SDS011;43162;51.040;18.244;2023-04-01T01:55:32;13.30;;;9.40;;
57327;SDS011;43162;51.040;18.244;2023-04-01T01:58:00;15.60;;;9.40;;
57327;SDS011;43162;51.040;18.244;2023-04-01T02:01:06;11.90;;;8.30;;
57327;SDS011;43162;51.040;18.244;2023-04-01T02:03:35;14.00;;;8.10;;
57327;SDS011;43162;51.040;18.244;2023-04-01T02:06:04;10.30;;;7.50;;
57327;SDS011;43162;51.040;18.244;2023-04-01T02:11:38;12.80;;;8.30;;
57327;SDS011;43162;51.040;18.244;2023-04-01T02:14:10;17.70;;;8.00;;
57327;SDS011;43162;51.040;18.244;2023-04-01T02:19:17;11.30;;;8.00;;
57327;SDS011;43162;51.040;18.244;2023-04-01T02:21:52;13.10;;;8.10;;
57327;SDS011;43162;51.040;18.244;2023-04-01T02:24:20;13.10;;;8.00;;
57327;SDS011;43162;51.040;18.244;2023-04-01T02:26:48;13.30;;;8.70;;
57327;SDS011;43162;51.040;18.244;2023-04-01T02:29:15;10.20;;;6.80;;
57327;SDS011;43162;51.040;18.244;2023-04-01T02:31:42;13.20;;;6.60;;
57327;SDS011;43162;51.040;18.244;2023-04-01T02:34:08;14.70;;;6.70;;
57327;SDS011;43162;51.040;18.244;2023-04-01T02:36:34;11.60;;;7.10;;
57327;SDS011;43162;51.040;18.244;2023-04-01T02:39:01;11.80;;;7.20;;
57327;SDS011;43162;51.040;18.244;2023-04-01T02:41:29;9.40;;;6.90;;
57327;SDS011;43162;51.040;18.244;2023-04-01T02:43:55;12.20;;;6.60;;
57327;SDS011;43162;51.040;18.244;2023-04-01T02:46:22;12.90;;;7.90;;
57327;SDS011;43162;51.040;18.244;2023-04-01T02:48:48;13.50;;;8.20;;
57327;SDS011;43162;51.040;18.244;2023-04-01T02:51:13;12.30;;;7.30;;
57327;SDS011;43162;51.040;18.244;2023-04-01T02:53:39;9.90;;;7.20;;
57327;SDS011;43162;51.040;18.244;2023-04-01T02:56:05;11.20;;;7.60;;
57327;SDS011;43162;51.040;18.244;2023-04-01T02:58:30;9.40;;;7.00;;
57327;SDS011;43162;51.040;18.244;2023-04-01T03:00:56;11.20;;;6.60;;
57327;SDS011;43162;51.040;18.244;2023-04-01T03:03:22;10.20;;;6.50;;
57327;SDS011;43162;51.040;18.244;2023-04-01T03:05:47;11.30;;;6.60;;
57327;SDS011;43162;51.040;18.244;2023-04-01T03:08:13;10.60;;;6.50;;
57327;SDS011;43162;51.040;18.244;2023-04-01T03:10:39;8.60;;;6.30;;
57327;SDS011;43162;51.040;18.244;2023-04-01T03:13:04;10.00;;;7.20;;
57327;SDS011;43162;51.040;18.244;2023-04-01T03:15:31;11.80;;;7.80;;
57327;SDS011;43162;51.040;18.244;2023-04-01T03:17:57;11.60;;;7.90;;
57327;SDS011;43162;51.040;18.244;2023-04-01T03:20:22;15.30;;;8.60;;
57327;SDS011;43162;51.040;18.244;2023-04-01T03:22:48;13.00;;;8.00;;
57327;SDS011;43162;51.040;18.244;2023-04-01T03:25:14;14.40;;;7.70;;
57327;SDS011;43162;51.040;18.244;2023-04-01T03:27:39;10.80;;;7.80;;
57327;SDS011;43162;51.040;18.244;2023-04-01T03:30:05;9.50;;;7.00;;
57327;SDS011;43162;51.040;18.244;2023-04-01T03:32:32;9.80;;;7.10;;
57327;SDS011;43162;51.040;18.244;2023-04-01T03:34:58;10.50;;;7.10;;
57327;SDS011;43162;51.040;18.244;2023-04-01T03:37:23;7.50;;;6.20;;
57327;SDS011;43162;51.040;18.244;2023-04-01T03:39:50;19.20;;;9.60;;
57327;SDS011;43162;51.040;18.244;2023-04-01T03:42:16;11.70;;;8.20;;
57327;SDS011;43162;51.040;18.244;2023-04-01T03:44:41;15.40;;;9.90;;
57327;SDS011;43162;51.040;18.244;2023-04-01T03:47:07;16.30;;;8.90;;
57327;SDS011;43162;51.040;18.244;2023-04-01T03:49:34;9.50;;;8.00;;
57327;SDS011;43162;51.040;18.244;2023-04-01T03:52:00;10.20;;;9.10;;
57327;SDS011;43162;51.040;18.244;2023-04-01T03:54:25;12.80;;;8.30;;
57327;SDS011;43162;51.040;18.244;2023-04-01T03:56:51;12.90;;;7.70;;
57327;SDS011;43162;51.040;18.244;2023-04-01T03:59:17;10.60;;;8.50;;
57327;SDS011;43162;51.040;18.244;2023-04-01T04:01:42;10.00;;;8.10;;
57327;SDS011;43162;51.040;18.244;2023-04-01T04:04:10;12.40;;;9.70;;
57327;SDS011;43162;51.040;18.244;2023-04-01T04:06:38;12.30;;;8.40;;
57327;SDS011;43162;51.040;18.244;2023-04-01T04:09:03;10.10;;;7.90;;
57327;SDS011;43162;51.040;18.244;2023-04-01T04:11:30;9.00;;;6.70;;
57327;SDS011;43162;51.040;18.244;2023-04-01T04:13:56;13.70;;;9.00;;
57327;SDS011;43162;51.040;18.244;2023-04-01T04:16:21;9.30;;;7.50;;
57327;SDS011;43162;51.040;18.244;2023-04-01T04:18:47;12.50;;;7.30;;
57327;SDS011;43162;51.040;18.244;2023-04-01T04:21:13;8.20;;;7.40;;
57327;SDS011;43162;51.040;18.244;2023-04-01T04:23:39;15.90;;;9.10;;
57327;SDS011;43162;51.040;18.244;2023-04-01T04:26:07;15.90;;;10.10;;
57327;SDS011;43162;51.040;18.244;2023-04-01T04:28:35;13.00;;;10.30;;
57327;SDS011;43162;51.040;18.244;2023-04-01T04:31:00;16.00;;;9.20;;
57327;SDS011;43162;51.040;18.244;2023-04-01T04:33:27;13.30;;;8.80;;
57327;SDS011;43162;51.040;18.244;2023-04-01T04:35:56;10.20;;;7.30;;
57327;SDS011;43162;51.040;18.244;2023-04-01T04:38:23;11.10;;;7.90;;
57327;SDS011;43162;51.040;18.244;2023-04-01T04:40:48;9.60;;;7.90;;
57327;SDS011;43162;51.040;18.244;2023-04-01T04:43:14;8.70;;;7.00;;
57327;SDS011;43162;51.040;18.244;2023-04-01T04:45:41;11.20;;;7.10;;
57327;SDS011;43162;51.040;18.244;2023-04-01T04:48:07;10.20;;;5.70;;
57327;SDS011;43162;51.040;18.244;2023-04-01T04:50:44;10.20;;;7.60;;
57327;SDS011;43162;51.040;18.244;2023-04-01T04:53:11;11.10;;;6.80;;
57327;SDS011;43162;51.040;18.244;2023-04-01T04:55:42;12.60;;;8.40;;
57327;SDS011;43162;51.040;18.244;2023-04-01T04:58:09;11.80;;;8.70;;
57327;SDS011;43162;51.040;18.244;2023-04-01T05:00:34;13.60;;;9.00;;
57327;SDS011;43162;51.040;18.244;2023-04-01T05:03:00;9.20;;;7.30;;
57327;SDS011;43162;51.040;18.244;2023-04-01T05:05:26;8.70;;;6.30;;
57327;SDS011;43162;51.040;18.244;2023-04-01T05:07:51;11.10;;;7.80;;
57327;SDS011;43162;51.040;18.244;2023-04-01T05:10:17;16.00;;;12.30;;
57327;SDS011;43162;51.040;18.244;2023-04-01T05:12:43;16.00;;;12.30;;
57327;SDS011;43162;51.040;18.244;2023-04-01T05:15:08;10.50;;;9.00;;
57327;SDS011;43162;51.040;18.244;2023-04-01T05:17:34;12.90;;;9.80;;
57327;SDS011;43162;51.040;18.244;2023-04-01T05:20:00;15.80;;;8.40;;
57327;SDS011;43162;51.040;18.244;2023-04-01T05:22:26;7.80;;;6.60;;
57327;SDS011;43162;51.040;18.244;2023-04-01T05:24:52;8.10;;;6.00;;
57327;SDS011;43162;51.040;18.244;2023-04-01T05:27:18;10.60;;;7.30;;
57327;SDS011;43162;51.040;18.244;2023-04-01T05:29:43;9.90;;;6.20;;
57327;SDS011;43162;51.040;18.244;2023-04-01T05:32:09;8.10;;;5.50;;
57327;SDS011;43162;51.040;18.244;2023-04-01T05:34:35;7.10;;;5.80;;
57327;SDS011;43162;51.040;18.244;2023-04-01T05:37:00;10.50;;;7.70;;
57327;SDS011;43162;51.040;18.244;2023-04-01T05:39:26;6.70;;;5.80;;
57327;SDS011;43162;51.040;18.244;2023-04-01T05:41:51;8.90;;;6.20;;
57327;SDS011;43162;51.040;18.244;2023-04-01T05:44:18;8.70;;;6.40;;
57327;SDS011;43162;51.040;18.244;2023-04-01T05:46:43;7.80;;;5.80;;
57327;SDS011;43162;51.040;18.244;2023-04-01T05:49:09;8.20;;;6.60;;
57327;SDS011;43162;51.040;18.244;2023-04-01T05:51:34;9.30;;;6.80;;
57327;SDS011;43162;51.040;18.244;2023-04-01T05:54:01;7.50;;;6.80;;
57327;SDS011;43162;51.040;18.244;2023-04-01T05:56:26;13.30;;;7.50;;
57327;SDS011;43162;51.040;18.244;2023-04-01T05:58:53;7.30;;;5.80;;
57327;SDS011;43162;51.040;18.244;2023-04-01T06:01:19;5.80;;;5.10;;
57327;SDS011;43162;51.040;18.244;2023-04-01T06:03:45;11.30;;;4.90;;
57327;SDS011;43162;51.040;18.244;2023-04-01T06:06:15;5.60;;;4.90;;
57327;SDS011;43162;51.040;18.244;2023-04-01T06:11:14;7.50;;;4.50;;
57327;SDS011;43162;51.040;18.244;2023-04-01T06:19:45;5.60;;;4.10;;
57327;SDS011;43162;51.040;18.244;2023-04-01T06:33:08;5.50;;;4.70;;
57327;SDS011;43162;51.040;18.244;2023-04-01T06:36:01;6.60;;;4.10;;
57327;SDS011;43162;51.040;18.244;2023-04-01T06:41:23;4.90;;;4.30;;
57327;SDS011;43162;51.040;18.244;2023-04-01T06:46:39;4.90;;;4.30;;
57327;SDS011;43162;51.040;18.244;2023-04-01T06:49:28;3.80;;;3.10;;
57327;SDS011;43162;51.040;18.244;2023-04-01T06:58:04;3.80;;;3.00;;
57327;SDS011;43162;51.040;18.244;2023-04-01T07:00:32;4.70;;;2.60;;
57327;SDS011;43162;51.040;18.244;2023-04-01T07:05:47;4.20;;;3.00;;
57327;SDS011;43162;51.040;18.244;2023-04-01T07:08:16;5.00;;;4.00;;
57327;SDS011;43162;51.040;18.244;2023-04-01T07:13:36;5.30;;;3.50;;
57327;SDS011;43162;51.040;18.244;2023-04-01T07:19:08;3.20;;;2.90;;
57327;SDS011;43162;51.040;18.244;2023-04-01T07:21:51;5.00;;;3.60;;
57327;SDS011;43162;51.040;18.244;2023-04-01T07:26:54;3.40;;;2.70;;
57327;SDS011;43162;51.040;18.244;2023-04-01T07:29:21;4.30;;;3.40;;
57327;SDS011;43162;51.040;18.244;2023-04-01T07:34:25;6.10;;;2.60;;
57327;SDS011;43162;51.040;18.244;2023-04-01T07:36:59;2.70;;;2.50;;
57327;SDS011;43162;51.040;18.244;2023-04-01T07:48:03;1.90;;;1.80;;
57327;SDS011;43162;51.040;18.244;2023-04-01T07:50:41;4.00;;;2.40;;
57327;SDS011;43162;51.040;18.244;2023-04-01T08:06:37;4.60;;;2.30;;
57327;SDS011;43162;51.040;18.244;2023-04-01T08:14:21;4.70;;;2.80;;
57327;SDS011;43162;51.040;18.244;2023-04-01T08:17:13;4.40;;;2.40;;
57327;SDS011;43162;51.040;18.244;2023-04-01T08:22:51;3.80;;;2.90;;
57327;SDS011;43162;51.040;18.244;2023-04-01T08:25:21;3.50;;;3.00;;
57327;SDS011;43162;51.040;18.244;2023-04-01T08:30:37;4.10;;;3.00;;
57327;SDS011;43162;51.040;18.244;2023-04-01T08:33:20;2.70;;;2.00;;
57327;SDS011;43162;51.040;18.244;2023-04-01T08:35:56;3.20;;;2.90;;
57327;SDS011;43162;51.040;18.244;2023-04-01T08:38:44;4.00;;;2.50;;
57327;SDS011;43162;51.040;18.244;2023-04-01T08:46:52;3.20;;;2.60;;
57327;SDS011;43162;51.040;18.244;2023-04-01T08:55:01;2.00;;;1.80;;
57327;SDS011;43162;51.040;18.244;2023-04-01T09:00:56;4.10;;;2.10;;
57327;SDS011;43162;51.040;18.244;2023-04-01T09:06:24;4.00;;;3.00;;
57327;SDS011;43162;51.040;18.244;2023-04-01T09:14:29;3.20;;;2.40;;
57327;SDS011;43162;51.040;18.244;2023-04-01T09:20:02;2.00;;;1.50;;
57327;SDS011;43162;51.040;18.244;2023-04-01T09:33:46;0.80;;;0.40;;
57327;SDS011;43162;51.040;18.244;2023-04-01T09:36:21;2.90;;;0.30;;
57327;SDS011;43162;51.040;18.244;2023-04-01T09:41:40;0.80;;;0.50;;
57327;SDS011;43162;51.040;18.244;2023-04-01T10:36:41;2.90;;;0.50;;
57327;SDS011;43162;51.040;18.244;2023-04-01T11:19:01;3.40;;;0.60;;
57327;SDS011;43162;51.040;18.244;2023-04-01T11:32:51;1.60;;;0.80;;
57327;SDS011;43162;51.040;18.244;2023-04-01T11:40:51;2.20;;;1.00;;
57327;SDS011;43162;51.040;18.244;2023-04-01T11:45:53;3.10;;;1.40;;
57327;SDS011;43162;51.040;18.244;2023-04-01T11:48:32;0.90;;;0.70;;
57327;SDS011;43162;51.040;18.244;2023-04-01T11:56:43;2.00;;;1.10;;
57327;SDS011;43162;51.040;18.244;2023-04-01T12:04:27;2.00;;;1.40;;
57327;SDS011;43162;51.040;18.244;2023-04-01T12:07:11;2.30;;;1.30;;
57327;SDS011;43162;51.040;18.244;2023-04-01T12:10:04;1.50;;;1.40;;
57327;SDS011;43162;51.040;18.244;2023-04-01T12:12:44;1.00;;;1.00;;
57327;SDS011;43162;51.040;18.244;2023-04-01T12:46:06;1.40;;;1.30;;
57327;SDS011;43162;51.040;18.244;2023-04-01T12:54:05;2.80;;;1.80;;
57327;SDS011;43162;51.040;18.244;2023-04-01T13:07:11;1.80;;;1.60;;
57327;SDS011;43162;51.040;18.244;2023-04-01T13:13:09;1.30;;;1.20;;
57327;SDS011;43162;51.040;18.244;2023-04-01T13:32:15;1.50;;;1.40;;
57327;SDS011;43162;51.040;18.244;2023-04-01T14:11:22;2.20;;;1.40;;
57327;SDS011;43162;51.040;18.244;2023-04-01T14:33:46;2.20;;;0.80;;
57327;SDS011;43162;51.040;18.244;2023-04-01T14:50:24;1.70;;;0.60;;
57327;SDS011;43162;51.040;18.244;2023-04-01T14:58:10;3.50;;;2.50;;
57327;SDS011;43162;51.040;18.244;2023-04-01T15:56:26;3.20;;;1.40;;
57327;SDS011;43162;51.040;18.244;2023-04-01T16:01:40;2.30;;;1.90;;
57327;SDS011;43162;51.040;18.244;2023-04-01T16:24:15;7.30;;;4.40;;
57327;SDS011;43162;51.040;18.244;2023-04-01T16:31:53;6.10;;;5.00;;
57327;SDS011;43162;51.040;18.244;2023-04-01T16:37:49;15.30;;;7.60;;
57327;SDS011;43162;51.040;18.244;2023-04-01T16:43:20;13.80;;;8.30;;
57327;SDS011;43162;51.040;18.244;2023-04-01T16:51:47;31.00;;;18.00;;
57327;SDS011;43162;51.040;18.244;2023-04-01T16:54:27;42.10;;;26.30;;
57327;SDS011;43162;51.040;18.244;2023-04-01T17:11:05;46.60;;;31.50;;
57327;SDS011;43162;51.040;18.244;2023-04-01T17:13:50;61.30;;;35.20;;
57327;SDS011;43162;51.040;18.244;2023-04-01T17:24:44;39.80;;;31.30;;
57327;SDS011;43162;51.040;18.244;2023-04-01T17:27:40;33.80;;;25.00;;
57327;SDS011;43162;51.040;18.244;2023-04-01T17:30:19;40.90;;;26.60;;
57327;SDS011;43162;51.040;18.244;2023-04-01T17:48:58;54.20;;;34.70;;
57327;SDS011;43162;51.040;18.244;2023-04-01T17:51:35;52.40;;;33.20;;
57327;SDS011;43162;51.040;18.244;2023-04-01T18:05:47;51.90;;;31.70;;
57327;SDS011;43162;51.040;18.244;2023-04-01T18:10:51;52.90;;;36.50;;
57327;SDS011;43162;51.040;18.244;2023-04-01T18:19:51;53.30;;;36.20;;
57327;SDS011;43162;51.040;18.244;2023-04-01T18:25:38;59.70;;;37.40;;
57327;SDS011;43162;51.040;18.244;2023-04-01T18:28:20;59.70;;;38.80;;
57327;SDS011;43162;51.040;18.244;2023-04-01T18:30:57;63.60;;;40.70;;
57327;SDS011;43162;51.040;18.244;2023-04-01T18:33:49;57.40;;;38.00;;
57327;SDS011;43162;51.040;18.244;2023-04-01T18:36:55;65.30;;;39.10;;
57327;SDS011;43162;51.040;18.244;2023-04-01T18:39:39;52.60;;;33.20;;
57327;SDS011;43162;51.040;18.244;2023-04-01T18:42:14;62.80;;;40.40;;
57327;SDS011;43162;51.040;18.244;2023-04-01T18:44:52;63.10;;;39.70;;
57327;SDS011;43162;51.040;18.244;2023-04-01T18:47:40;70.40;;;44.90;;
57327;SDS011;43162;51.040;18.244;2023-04-01T19:01:39;82.80;;;45.60;;
57327;SDS011;43162;51.040;18.244;2023-04-01T19:18:30;59.70;;;33.90;;
57327;SDS011;43162;51.040;18.244;2023-04-01T19:23:57;77.90;;;41.30;;
57327;SDS011;43162;51.040;18.244;2023-04-01T19:26:32;73.80;;;41.80;;
57327;SDS011;43162;51.040;18.244;2023-04-01T19:31:59;65.90;;;37.80;;
57327;SDS011;43162;51.040;18.244;2023-04-01T19:35:02;61.70;;;33.10;;
57327;SDS011;43162;51.040;18.244;2023-04-01T19:40:13;60.70;;;33.20;;
57327;SDS011;43162;51.040;18.244;2023-04-01T19:43:10;58.20;;;31.40;;
57327;SDS011;43162;51.040;18.244;2023-04-01T19:51:39;53.90;;;32.20;;
57327;SDS011;43162;51.040;18.244;2023-04-01T19:54:20;55.80;;;32.00;;
57327;SDS011;43162;51.040;18.244;2023-04-01T20:04:51;53.50;;;31.30;;
57327;SDS011;43162;51.040;18.244;2023-04-01T20:17:50;61.40;;;32.50;;
57327;SDS011;43162;51.040;18.244;2023-04-01T20:20:19;68.10;;;35.50;;
57327;SDS011;43162;51.040;18.244;2023-04-01T20:23:01;55.20;;;32.30;;
57327;SDS011;43162;51.040;18.244;2023-04-01T20:28:30;52.00;;;27.70;;
57327;SDS011;43162;51.040;18.244;2023-04-01T20:49:52;50.50;;;28.90;;
57327;SDS011;43162;51.040;18.244;2023-04-01T20:52:49;52.90;;;28.90;;
57327;SDS011;43162;51.040;18.244;2023-04-01T20:55:21;55.60;;;29.80;;
57327;SDS011;43162;51.040;18.244;2023-04-01T20:58:23;47.00;;;27.40;;
57327;SDS011;43162;51.040;18.244;2023-04-01T21:03:59;60.40;;;31.20;;
57327;SDS011;43162;51.040;18.244;2023-04-01T21:09:44;53.60;;;28.00;;
57327;SDS011;43162;51.040;18.244;2023-04-01T21:12:28;50.90;;;27.90;;
57327;SDS011;43162;51.040;18.244;2023-04-01T21:26:56;40.20;;;24.70;;
57327;SDS011;43162;51.040;18.244;2023-04-01T21:32:11;39.20;;;20.20;;
57327;SDS011;43162;51.040;18.244;2023-04-01T21:34:51;43.30;;;24.70;;
57327;SDS011;43162;51.040;18.244;2023-04-01T21:46:47;42.50;;;25.20;;
57327;SDS011;43162;51.040;18.244;2023-04-01T22:06:42;48.20;;;26.80;;
57327;SDS011;43162;51.040;18.244;2023-04-01T22:09:27;44.40;;;25.30;;
57327;SDS011;43162;51.040;18.244;2023-04-01T22:12:16;46.60;;;27.20;;
57327;SDS011;43162;51.040;18.244;2023-04-01T22:14:55;51.10;;;28.50;;
57327;SDS011;43162;51.040;18.244;2023-04-01T22:17:38;48.00;;;26.60;;
57327;SDS011;43162;51.040;18.244;2023-04-01T22:23:03;44.50;;;27.10;;
57327;SDS011;43162;51.040;18.244;2023-04-01T22:28:09;50.10;;;28.60;;
57327;SDS011;43162;51.040;18.244;2023-04-01T22:39:01;41.80;;;26.30;;
57327;SDS011;43162;51.040;18.244;2023-04-01T22:46:53;41.20;;;26.20;;
57327;SDS011;43162;51.040;18.244;2023-04-01T22:54:42;44.60;;;26.90;;
57327;SDS011;43162;51.040;18.244;2023-04-01T22:57:12;47.30;;;26.90;;
57327;SDS011;43162;51.040;18.244;2023-04-01T22:59:56;44.60;;;27.90;;
57327;SDS011;43162;51.040;18.244;2023-04-01T23:02:40;45.80;;;29.00;;
57327;SDS011;43162;51.040;18.244;2023-04-01T23:05:10;48.10;;;27.60;;
57327;SDS011;43162;51.040;18.244;2023-04-01T23:07:41;54.70;;;32.60;;
57327;SDS011;43162;51.040;18.244;2023-04-01T23:13:16;51.40;;;29.50;;
57327;SDS011;43162;51.040;18.244;2023-04-01T23:15:44;51.30;;;29.80;;
57327;SDS011;43162;51.040;18.244;2023-04-01T23:24:04;53.20;;;28.30;;
57327;SDS011;43162;51.040;18.244;2023-04-01T23:29:02;47.20;;;30.30;;
57327;SDS011;43162;51.040;18.244;2023-04-01T23:31:32;44.00;;;28.60;;
57327;SDS011;43162;51.040;18.244;2023-04-01T23:36:26;48.20;;;29.50;;
57327;SDS011;43162;51.040;18.244;2023-04-01T23:38:52;42.60;;;25.60;;
57327;SDS011;43162;51.040;18.244;2023-04-01T23:41:23;53.00;;;29.20;;
57327;SDS011;43162;51.040;18.244;2023-04-01T23:43:54;49.70;;;29.90;;
57327;SDS011;43162;51.040;18.244;2023-04-01T23:46:22;53.00;;;30.30;;
57327;SDS011;43162;51.040;18.244;2023-04-01T23:48:49;35.90;;;21.00;;
57327;SDS011;43162;51.040;18.244;2023-04-01T23:51:19;43.80;;;25.40;;
57327;SDS011;43162;51.040;18.244;2023-04-01T23:53:56;43.70;;;24.80;;
57327;SDS011;43162;51.040;18.244;2023-04-01T23:56:33;19.50;;;12.70;;
57327;SDS011;43162;51.040;18.244;2023-04-01T23:59:29;40.50;;;22.70;;
